sensor_id;sensor_type;location;lat;lon;timestamp;P1;durP1;ratioP1;P2;durP2;ratioP2
10565;SDS011;5331;48.148;16.326;2023-02-22T00:01:51;2.20;;;2.00;;
10565;SDS011;5331;48.148;16.326;2023-02-22T00:04:34;2.35;;;2.15;;
10565;SDS011;5331;48.148;16.326;2023-02-22T00:07:03;2.30;;;2.10;;
10565;SDS011;5331;48.148;16.326;2023-02-22T00:09:32;1.90;;;1.80;;
10565;SDS011;5331;48.148;16.326;2023-02-22T00:11:58;2.50;;;1.90;;
10565;SDS011;5331;48.148;16.326;2023-02-22T00:27:55;2.30;;;2.10;;
10565;SDS011;5331;48.148;16.326;2023-02-22T00:30:23;2.20;;;2.08;;
10565;SDS011;5331;48.148;16.326;2023-02-22T00:32:52;2.10;;;1.90;;
10565;SDS011;5331;48.148;16.326;2023-02-22T00:35:21;2.28;;;2.08;;
10565;SDS011;5331;48.148;16.326;2023-02-22T00:37:50;1.90;;;1.80;;
10565;SDS011;5331;48.148;16.326;2023-02-22T00:40:18;2.20;;;2.00;;
10565;SDS011;5331;48.148;16.326;2023-02-22T00:42:46;2.55;;;2.00;;
10565;SDS011;5331;48.148;16.326;2023-02-22T00:45:16;2.25;;;2.10;;
10565;SDS011;5331;48.148;16.326;2023-02-22T00:47:45;2.28;;;2.08;;
10565;SDS011;5331;48.148;16.326;2023-02-22T00:50:12;2.42;;;2.20;;
10565;SDS011;5331;48.148;16.326;2023-02-22T00:52:40;2.97;;;2.28;;
10565;SDS011;5331;48.148;16.326;2023-02-22T00:55:08;2.15;;;2.00;;
10565;SDS011;5331;48.148;16.326;2023-02-22T00:57:36;2.28;;;2.08;;
10565;SDS011;5331;48.148;16.326;2023-02-22T01:00:04;2.28;;;2.08;;
10565;SDS011;5331;48.148;16.326;2023-02-22T01:02:38;2.33;;;2.13;;
10565;SDS011;5331;48.148;16.326;2023-02-22T01:05:06;3.35;;;2.50;;
10565;SDS011;5331;48.148;16.326;2023-02-22T01:07:36;2.20;;;2.10;;
10565;SDS011;5331;48.148;16.326;2023-02-22T01:10:04;2.63;;;2.30;;
10565;SDS011;5331;48.148;16.326;2023-02-22T01:12:33;2.78;;;2.40;;
10565;SDS011;5331;48.148;16.326;2023-02-22T01:15:00;2.30;;;2.10;;
10565;SDS011;5331;48.148;16.326;2023-02-22T01:17:28;2.13;;;2.03;;
10565;SDS011;5331;48.148;16.326;2023-02-22T01:19:56;2.35;;;2.15;;
10565;SDS011;5331;48.148;16.326;2023-02-22T01:22:23;2.00;;;1.90;;
10565;SDS011;5331;48.148;16.326;2023-02-22T01:24:52;3.60;;;2.30;;
10565;SDS011;5331;48.148;16.326;2023-02-22T01:27:19;2.75;;;2.30;;
10565;SDS011;5331;48.148;16.326;2023-02-22T01:29:47;2.30;;;2.10;;
10565;SDS011;5331;48.148;16.326;2023-02-22T01:32:14;2.33;;;2.13;;
10565;SDS011;5331;48.148;16.326;2023-02-22T01:34:41;2.53;;;2.33;;
10565;SDS011;5331;48.148;16.326;2023-02-22T01:37:09;2.55;;;2.35;;
10565;SDS011;5331;48.148;16.326;2023-02-22T01:39:36;2.30;;;2.15;;
10565;SDS011;5331;48.148;16.326;2023-02-22T01:42:04;2.20;;;2.00;;
10565;SDS011;5331;48.148;16.326;2023-02-22T01:44:34;2.40;;;2.03;;
10565;SDS011;5331;48.148;16.326;2023-02-22T01:47:03;2.30;;;2.10;;
10565;SDS011;5331;48.148;16.326;2023-02-22T01:49:35;2.38;;;2.17;;
10565;SDS011;5331;48.148;16.326;2023-02-22T01:52:06;3.05;;;2.05;;
10565;SDS011;5331;48.148;16.326;2023-02-22T01:54:38;2.50;;;2.30;;
10565;SDS011;5331;48.148;16.326;2023-02-22T01:57:09;1.95;;;1.85;;
10565;SDS011;5331;48.148;16.326;2023-02-22T01:59:41;2.33;;;1.90;;
10565;SDS011;5331;48.148;16.326;2023-02-22T02:02:11;2.25;;;2.00;;
10565;SDS011;5331;48.148;16.326;2023-02-22T02:04:39;2.00;;;1.90;;
10565;SDS011;5331;48.148;16.326;2023-02-22T02:07:08;2.10;;;2.00;;
10565;SDS011;5331;48.148;16.326;2023-02-22T02:09:41;2.10;;;1.90;;
10565;SDS011;5331;48.148;16.326;2023-02-22T02:12:13;2.53;;;2.17;;
10565;SDS011;5331;48.148;16.326;2023-02-22T02:14:41;2.08;;;1.88;;
10565;SDS011;5331;48.148;16.326;2023-02-22T02:17:09;2.30;;;2.10;;
10565;SDS011;5331;48.148;16.326;2023-02-22T02:19:42;2.33;;;2.13;;
10565;SDS011;5331;48.148;16.326;2023-02-22T02:22:18;2.10;;;1.90;;
10565;SDS011;5331;48.148;16.326;2023-02-22T02:25:01;2.20;;;2.00;;
10565;SDS011;5331;48.148;16.326;2023-02-22T02:31:10;1.80;;;1.70;;
10565;SDS011;5331;48.148;16.326;2023-02-22T02:34:07;2.13;;;1.92;;
10565;SDS011;5331;48.148;16.326;2023-02-22T02:36:42;2.35;;;2.13;;
10565;SDS011;5331;48.148;16.326;2023-02-22T02:39:17;2.08;;;1.85;;
10565;SDS011;5331;48.148;16.326;2023-02-22T02:41:53;2.40;;;2.20;;
10565;SDS011;5331;48.148;16.326;2023-02-22T02:44:22;2.05;;;1.95;;
10565;SDS011;5331;48.148;16.326;2023-02-22T02:46:54;2.00;;;1.90;;
10565;SDS011;5331;48.148;16.326;2023-02-22T02:49:28;2.10;;;1.90;;
10565;SDS011;5331;48.148;16.326;2023-02-22T02:51:59;2.05;;;1.95;;
10565;SDS011;5331;48.148;16.326;2023-02-22T02:54:28;2.60;;;2.10;;
10565;SDS011;5331;48.148;16.326;2023-02-22T02:56:56;2.30;;;2.10;;
10565;SDS011;5331;48.148;16.326;2023-02-22T02:59:24;2.17;;;1.98;;
10565;SDS011;5331;48.148;16.326;2023-02-22T03:01:56;2.67;;;2.40;;
10565;SDS011;5331;48.148;16.326;2023-02-22T03:04:43;2.20;;;2.00;;
10565;SDS011;5331;48.148;16.326;2023-02-22T03:07:31;2.53;;;1.95;;
10565;SDS011;5331;48.148;16.326;2023-02-22T03:10:17;2.13;;;2.03;;
10565;SDS011;5331;48.148;16.326;2023-02-22T03:12:53;2.65;;;2.08;;
10565;SDS011;5331;48.148;16.326;2023-02-22T03:15:29;2.20;;;2.00;;
10565;SDS011;5331;48.148;16.326;2023-02-22T03:18:04;2.20;;;2.00;;
10565;SDS011;5331;48.148;16.326;2023-02-22T03:20:40;2.20;;;2.10;;
10565;SDS011;5331;48.148;16.326;2023-02-22T03:23:12;2.20;;;2.10;;
10565;SDS011;5331;48.148;16.326;2023-02-22T03:25:45;1.98;;;1.80;;
10565;SDS011;5331;48.148;16.326;2023-02-22T03:28:17;2.13;;;2.03;;
10565;SDS011;5331;48.148;16.326;2023-02-22T03:30:51;2.25;;;2.08;;
10565;SDS011;5331;48.148;16.326;2023-02-22T03:33:24;1.77;;;1.67;;
10565;SDS011;5331;48.148;16.326;2023-02-22T03:36:00;2.00;;;1.85;;
10565;SDS011;5331;48.148;16.326;2023-02-22T03:38:32;2.42;;;2.15;;
10565;SDS011;5331;48.148;16.326;2023-02-22T03:41:03;2.10;;;1.90;;
10565;SDS011;5331;48.148;16.326;2023-02-22T03:43:33;2.30;;;2.10;;
10565;SDS011;5331;48.148;16.326;2023-02-22T03:46:05;2.55;;;2.35;;
10565;SDS011;5331;48.148;16.326;2023-02-22T03:48:35;3.10;;;2.80;;
10565;SDS011;5331;48.148;16.326;2023-02-22T03:51:09;3.03;;;2.72;;
10565;SDS011;5331;48.148;16.326;2023-02-22T03:53:39;2.92;;;2.70;;
10565;SDS011;5331;48.148;16.326;2023-02-22T03:56:09;2.70;;;2.50;;
10565;SDS011;5331;48.148;16.326;2023-02-22T03:58:39;2.60;;;2.40;;
10565;SDS011;5331;48.148;16.326;2023-02-22T04:01:10;3.30;;;2.40;;
10565;SDS011;5331;48.148;16.326;2023-02-22T04:03:37;2.45;;;2.25;;
10565;SDS011;5331;48.148;16.326;2023-02-22T04:06:06;2.63;;;2.42;;
10565;SDS011;5331;48.148;16.326;2023-02-22T04:08:35;2.90;;;2.70;;
10565;SDS011;5331;48.148;16.326;2023-02-22T04:11:02;2.25;;;2.15;;
10565;SDS011;5331;48.148;16.326;2023-02-22T04:13:29;2.63;;;2.38;;
10565;SDS011;5331;48.148;16.326;2023-02-22T04:15:56;2.75;;;2.53;;
10565;SDS011;5331;48.148;16.326;2023-02-22T04:18:23;2.80;;;2.42;;
10565;SDS011;5331;48.148;16.326;2023-02-22T04:20:50;2.70;;;2.50;;
10565;SDS011;5331;48.148;16.326;2023-02-22T04:36:12;2.95;;;2.55;;
10565;SDS011;5331;48.148;16.326;2023-02-22T04:38:40;2.90;;;2.60;;
10565;SDS011;5331;48.148;16.326;2023-02-22T04:41:07;2.97;;;2.67;;
10565;SDS011;5331;48.148;16.326;2023-02-22T04:43:34;2.70;;;2.50;;
10565;SDS011;5331;48.148;16.326;2023-02-22T04:46:01;2.95;;;2.70;;
10565;SDS011;5331;48.148;16.326;2023-02-22T04:48:28;3.13;;;2.85;;
10565;SDS011;5331;48.148;16.326;2023-02-22T04:50:55;3.15;;;2.45;;
10565;SDS011;5331;48.148;16.326;2023-02-22T04:53:23;2.63;;;2.30;;
10565;SDS011;5331;48.148;16.326;2023-02-22T04:55:50;2.25;;;2.05;;
10565;SDS011;5331;48.148;16.326;2023-02-22T04:58:17;2.83;;;2.60;;
10565;SDS011;5331;48.148;16.326;2023-02-22T05:00:44;2.70;;;2.50;;
10565;SDS011;5331;48.148;16.326;2023-02-22T05:03:11;3.03;;;2.70;;
10565;SDS011;5331;48.148;16.326;2023-02-22T05:05:39;2.63;;;2.42;;
10565;SDS011;5331;48.148;16.326;2023-02-22T05:08:06;3.17;;;2.50;;
10565;SDS011;5331;48.148;16.326;2023-02-22T05:10:35;2.60;;;2.40;;
10565;SDS011;5331;48.148;16.326;2023-02-22T05:13:02;3.35;;;2.72;;
10565;SDS011;5331;48.148;16.326;2023-02-22T05:15:30;3.35;;;2.60;;
10565;SDS011;5331;48.148;16.326;2023-02-22T05:17:57;2.88;;;2.65;;
10565;SDS011;5331;48.148;16.326;2023-02-22T05:20:25;2.72;;;2.50;;
10565;SDS011;5331;48.148;16.326;2023-02-22T05:22:53;2.83;;;2.50;;
10565;SDS011;5331;48.148;16.326;2023-02-22T05:25:20;3.78;;;2.38;;
10565;SDS011;5331;48.148;16.326;2023-02-22T05:27:52;2.60;;;2.40;;
10565;SDS011;5331;48.148;16.326;2023-02-22T05:30:22;2.72;;;2.53;;
10565;SDS011;5331;48.148;16.326;2023-02-22T05:32:51;3.00;;;2.80;;
10565;SDS011;5331;48.148;16.326;2023-02-22T05:35:19;2.88;;;2.67;;
10565;SDS011;5331;48.148;16.326;2023-02-22T05:37:47;3.03;;;2.80;;
10565;SDS011;5331;48.148;16.326;2023-02-22T05:40:15;3.33;;;2.90;;
10565;SDS011;5331;48.148;16.326;2023-02-22T05:42:43;2.50;;;2.30;;
10565;SDS011;5331;48.148;16.326;2023-02-22T05:45:12;7.82;;;5.97;;
10565;SDS011;5331;48.148;16.326;2023-02-22T05:47:41;7.43;;;5.93;;
10565;SDS011;5331;48.148;16.326;2023-02-22T05:50:08;13.93;;;9.63;;
10565;SDS011;5331;48.148;16.326;2023-02-22T05:52:35;8.55;;;6.25;;
10565;SDS011;5331;48.148;16.326;2023-02-22T05:55:03;15.45;;;6.55;;
10565;SDS011;5331;48.148;16.326;2023-02-22T05:57:31;8.55;;;5.53;;
10565;SDS011;5331;48.148;16.326;2023-02-22T05:59:58;4.30;;;3.85;;
10565;SDS011;5331;48.148;16.326;2023-02-22T06:02:27;2.97;;;2.72;;
10565;SDS011;5331;48.148;16.326;2023-02-22T06:04:58;3.30;;;3.00;;
10565;SDS011;5331;48.148;16.326;2023-02-22T06:07:25;3.30;;;2.67;;
10565;SDS011;5331;48.148;16.326;2023-02-22T06:09:52;3.05;;;2.67;;
10565;SDS011;5331;48.148;16.326;2023-02-22T06:12:19;2.67;;;2.22;;
10565;SDS011;5331;48.148;16.326;2023-02-22T06:14:47;2.95;;;2.45;;
10565;SDS011;5331;48.148;16.326;2023-02-22T06:17:15;3.40;;;2.30;;
10565;SDS011;5331;48.148;16.326;2023-02-22T06:19:44;2.92;;;2.63;;
10565;SDS011;5331;48.148;16.326;2023-02-22T06:22:15;3.55;;;2.83;;
10565;SDS011;5331;48.148;16.326;2023-02-22T06:24:44;3.38;;;2.90;;
10565;SDS011;5331;48.148;16.326;2023-02-22T06:27:11;2.78;;;2.55;;
10565;SDS011;5331;48.148;16.326;2023-02-22T06:29:38;3.15;;;2.40;;
10565;SDS011;5331;48.148;16.326;2023-02-22T06:32:09;2.83;;;2.63;;
10565;SDS011;5331;48.148;16.326;2023-02-22T06:34:36;2.65;;;2.45;;
10565;SDS011;5331;48.148;16.326;2023-02-22T06:37:06;4.28;;;2.85;;
10565;SDS011;5331;48.148;16.326;2023-02-22T06:39:35;4.88;;;3.17;;
10565;SDS011;5331;48.148;16.326;2023-02-22T06:42:02;5.75;;;3.58;;
10565;SDS011;5331;48.148;16.326;2023-02-22T06:44:29;4.32;;;2.88;;
10565;SDS011;5331;48.148;16.326;2023-02-22T06:46:56;3.63;;;3.10;;
10565;SDS011;5331;48.148;16.326;2023-02-22T06:49:24;4.15;;;3.50;;
10565;SDS011;5331;48.148;16.326;2023-02-22T06:51:51;7.90;;;3.35;;
10565;SDS011;5331;48.148;16.326;2023-02-22T06:54:20;3.42;;;3.13;;
10565;SDS011;5331;48.148;16.326;2023-02-22T06:56:48;5.93;;;3.53;;
10565;SDS011;5331;48.148;16.326;2023-02-22T06:59:14;3.53;;;3.20;;
10565;SDS011;5331;48.148;16.326;2023-02-22T07:01:42;6.35;;;3.33;;
10565;SDS011;5331;48.148;16.326;2023-02-22T07:04:09;6.13;;;3.67;;
10565;SDS011;5331;48.148;16.326;2023-02-22T07:06:36;5.05;;;2.97;;
10565;SDS011;5331;48.148;16.326;2023-02-22T07:09:03;7.78;;;3.17;;
10565;SDS011;5331;48.148;16.326;2023-02-22T07:11:33;6.47;;;3.60;;
10565;SDS011;5331;48.148;16.326;2023-02-22T07:14:00;7.30;;;3.50;;
10565;SDS011;5331;48.148;16.326;2023-02-22T07:16:26;4.25;;;3.30;;
10565;SDS011;5331;48.148;16.326;2023-02-22T07:18:53;5.55;;;3.30;;
10565;SDS011;5331;48.148;16.326;2023-02-22T07:21:20;3.80;;;3.40;;
10565;SDS011;5331;48.148;16.326;2023-02-22T07:23:49;8.68;;;4.00;;
10565;SDS011;5331;48.148;16.326;2023-02-22T07:26:17;3.80;;;3.42;;
10565;SDS011;5331;48.148;16.326;2023-02-22T07:28:48;5.90;;;3.70;;
10565;SDS011;5331;48.148;16.326;2023-02-22T07:31:15;7.13;;;3.95;;
10565;SDS011;5331;48.148;16.326;2023-02-22T07:33:44;5.10;;;3.97;;
10565;SDS011;5331;48.148;16.326;2023-02-22T07:36:11;4.20;;;3.80;;
10565;SDS011;5331;48.148;16.326;2023-02-22T07:38:41;6.25;;;3.03;;
10565;SDS011;5331;48.148;16.326;2023-02-22T07:41:09;6.13;;;3.80;;
10565;SDS011;5331;48.148;16.326;2023-02-22T07:43:36;4.25;;;3.50;;
10565;SDS011;5331;48.148;16.326;2023-02-22T07:46:04;3.83;;;3.42;;
10565;SDS011;5331;48.148;16.326;2023-02-22T07:48:31;3.80;;;3.38;;
10565;SDS011;5331;48.148;16.326;2023-02-22T07:50:58;4.47;;;3.78;;
10565;SDS011;5331;48.148;16.326;2023-02-22T07:53:27;4.10;;;3.70;;
10565;SDS011;5331;48.148;16.326;2023-02-22T07:55:55;4.38;;;3.70;;
10565;SDS011;5331;48.148;16.326;2023-02-22T07:58:24;5.43;;;4.15;;
10565;SDS011;5331;48.148;16.326;2023-02-22T08:00:53;4.40;;;4.00;;
10565;SDS011;5331;48.148;16.326;2023-02-22T08:03:22;4.60;;;3.92;;
10565;SDS011;5331;48.148;16.326;2023-02-22T08:05:51;6.97;;;3.90;;
10565;SDS011;5331;48.148;16.326;2023-02-22T08:08:20;4.38;;;3.70;;
10565;SDS011;5331;48.148;16.326;2023-02-22T08:10:48;4.53;;;3.42;;
10565;SDS011;5331;48.148;16.326;2023-02-22T08:13:16;4.78;;;3.40;;
10565;SDS011;5331;48.148;16.326;2023-02-22T08:15:45;6.53;;;3.35;;
10565;SDS011;5331;48.148;16.326;2023-02-22T08:18:13;3.25;;;2.80;;
10565;SDS011;5331;48.148;16.326;2023-02-22T08:20:43;2.95;;;2.72;;
10565;SDS011;5331;48.148;16.326;2023-02-22T08:23:12;2.80;;;2.60;;
10565;SDS011;5331;48.148;16.326;2023-02-22T08:25:40;3.83;;;3.15;;
10565;SDS011;5331;48.148;16.326;2023-02-22T08:28:08;2.88;;;2.67;;
10565;SDS011;5331;48.148;16.326;2023-02-22T08:30:36;2.83;;;2.50;;
10565;SDS011;5331;48.148;16.326;2023-02-22T08:33:06;3.05;;;2.70;;
10565;SDS011;5331;48.148;16.326;2023-02-22T08:35:34;2.47;;;2.28;;
10565;SDS011;5331;48.148;16.326;2023-02-22T08:38:04;3.15;;;2.30;;
10565;SDS011;5331;48.148;16.326;2023-02-22T08:40:33;2.22;;;2.00;;
10565;SDS011;5331;48.148;16.326;2023-02-22T08:43:01;2.72;;;2.25;;
10565;SDS011;5331;48.148;16.326;2023-02-22T08:45:30;2.30;;;2.10;;
10565;SDS011;5331;48.148;16.326;2023-02-22T08:47:57;2.50;;;2.30;;
10565;SDS011;5331;48.148;16.326;2023-02-22T08:50:25;2.63;;;2.40;;
10565;SDS011;5331;48.148;16.326;2023-02-22T08:52:54;2.58;;;2.38;;
10565;SDS011;5331;48.148;16.326;2023-02-22T08:55:25;2.42;;;2.28;;
10565;SDS011;5331;48.148;16.326;2023-02-22T08:57:54;2.63;;;2.42;;
10565;SDS011;5331;48.148;16.326;2023-02-22T09:00:21;2.40;;;2.20;;
10565;SDS011;5331;48.148;16.326;2023-02-22T09:02:49;4.45;;;2.60;;
10565;SDS011;5331;48.148;16.326;2023-02-22T09:05:16;3.45;;;2.38;;
10565;SDS011;5331;48.148;16.326;2023-02-22T09:07:44;3.78;;;2.35;;
10565;SDS011;5331;48.148;16.326;2023-02-22T09:10:12;3.53;;;2.55;;
10565;SDS011;5331;48.148;16.326;2023-02-22T09:12:42;3.25;;;2.67;;
10565;SDS011;5331;48.148;16.326;2023-02-22T09:15:09;2.95;;;2.65;;
10565;SDS011;5331;48.148;16.326;2023-02-22T09:17:37;3.88;;;3.10;;
10565;SDS011;5331;48.148;16.326;2023-02-22T09:20:04;6.28;;;3.20;;
10565;SDS011;5331;48.148;16.326;2023-02-22T09:22:37;6.05;;;3.20;;
10565;SDS011;5331;48.148;16.326;2023-02-22T09:25:05;3.28;;;3.08;;
10565;SDS011;5331;48.148;16.326;2023-02-22T09:27:32;4.47;;;2.78;;
10565;SDS011;5331;48.148;16.326;2023-02-22T09:30:00;3.13;;;2.83;;
10565;SDS011;5331;48.148;16.326;2023-02-22T09:32:28;3.13;;;2.83;;
10565;SDS011;5331;48.148;16.326;2023-02-22T09:34:55;2.80;;;2.60;;
10565;SDS011;5331;48.148;16.326;2023-02-22T09:37:22;3.33;;;2.88;;
10565;SDS011;5331;48.148;16.326;2023-02-22T09:39:49;2.50;;;2.38;;
10565;SDS011;5331;48.148;16.326;2023-02-22T09:42:18;3.38;;;2.80;;
10565;SDS011;5331;48.148;16.326;2023-02-22T09:44:55;2.63;;;2.42;;
10565;SDS011;5331;48.148;16.326;2023-02-22T09:47:34;3.15;;;2.50;;
10565;SDS011;5331;48.148;16.326;2023-02-22T09:50:06;3.13;;;2.22;;
10565;SDS011;5331;48.148;16.326;2023-02-22T09:52:40;2.33;;;2.20;;
10565;SDS011;5331;48.148;16.326;2023-02-22T09:55:19;3.90;;;2.85;;
10565;SDS011;5331;48.148;16.326;2023-02-22T09:57:55;3.08;;;2.80;;
10565;SDS011;5331;48.148;16.326;2023-02-22T10:00:26;3.38;;;3.00;;
10565;SDS011;5331;48.148;16.326;2023-02-22T10:02:59;3.30;;;3.00;;
10565;SDS011;5331;48.148;16.326;2023-02-22T10:05:35;3.17;;;2.97;;
10565;SDS011;5331;48.148;16.326;2023-02-22T10:08:09;3.00;;;2.70;;
10565;SDS011;5331;48.148;16.326;2023-02-22T10:10:38;3.53;;;2.90;;
10565;SDS011;5331;48.148;16.326;2023-02-22T10:13:13;3.97;;;3.03;;
10565;SDS011;5331;48.148;16.326;2023-02-22T10:15:47;2.92;;;2.72;;
10565;SDS011;5331;48.148;16.326;2023-02-22T10:21:33;2.90;;;2.60;;
10565;SDS011;5331;48.148;16.326;2023-02-22T10:24:10;3.05;;;2.70;;
10565;SDS011;5331;48.148;16.326;2023-02-22T10:26:44;3.95;;;3.10;;
10565;SDS011;5331;48.148;16.326;2023-02-22T10:29:13;2.90;;;2.70;;
10565;SDS011;5331;48.148;16.326;2023-02-22T10:31:48;3.22;;;2.83;;
10565;SDS011;5331;48.148;16.326;2023-02-22T10:34:23;4.05;;;2.60;;
10565;SDS011;5331;48.148;16.326;2023-02-22T10:36:54;3.22;;;2.78;;
10565;SDS011;5331;48.148;16.326;2023-02-22T10:39:26;3.10;;;2.75;;
10565;SDS011;5331;48.148;16.326;2023-02-22T10:41:56;2.72;;;2.53;;
10565;SDS011;5331;48.148;16.326;2023-02-22T10:44:30;3.53;;;3.15;;
10565;SDS011;5331;48.148;16.326;2023-02-22T10:46:57;3.00;;;2.80;;
10565;SDS011;5331;48.148;16.326;2023-02-22T10:49:28;3.30;;;3.00;;
10565;SDS011;5331;48.148;16.326;2023-02-22T10:51:59;3.15;;;2.90;;
10565;SDS011;5331;48.148;16.326;2023-02-22T10:54:29;4.63;;;2.90;;
10565;SDS011;5331;48.148;16.326;2023-02-22T10:56:58;3.25;;;2.97;;
10565;SDS011;5331;48.148;16.326;2023-02-22T10:59:29;2.85;;;2.65;;
10565;SDS011;5331;48.148;16.326;2023-02-22T11:01:58;3.42;;;3.10;;
10565;SDS011;5331;48.148;16.326;2023-02-22T11:04:28;4.07;;;3.20;;
10565;SDS011;5331;48.148;16.326;2023-02-22T11:07:17;3.17;;;2.83;;
10565;SDS011;5331;48.148;16.326;2023-02-22T11:09:51;3.05;;;2.75;;
10565;SDS011;5331;48.148;16.326;2023-02-22T11:12:20;4.22;;;2.92;;
10565;SDS011;5331;48.148;16.326;2023-02-22T11:14:52;3.40;;;3.03;;
10565;SDS011;5331;48.148;16.326;2023-02-22T11:17:23;3.10;;;2.75;;
10565;SDS011;5331;48.148;16.326;2023-02-22T11:19:56;3.13;;;2.80;;
10565;SDS011;5331;48.148;16.326;2023-02-22T11:22:25;3.45;;;2.85;;
10565;SDS011;5331;48.148;16.326;2023-02-22T11:24:56;3.30;;;2.88;;
10565;SDS011;5331;48.148;16.326;2023-02-22T11:27:27;3.42;;;2.78;;
10565;SDS011;5331;48.148;16.326;2023-02-22T11:32:55;3.47;;;2.90;;
10565;SDS011;5331;48.148;16.326;2023-02-22T11:38:18;3.67;;;3.00;;
10565;SDS011;5331;48.148;16.326;2023-02-22T11:40:46;3.45;;;2.85;;
10565;SDS011;5331;48.148;16.326;2023-02-22T11:43:38;3.63;;;2.83;;
10565;SDS011;5331;48.148;16.326;2023-02-22T11:46:07;2.63;;;2.42;;
10565;SDS011;5331;48.148;16.326;2023-02-22T11:48:38;3.38;;;3.08;;
10565;SDS011;5331;48.148;16.326;2023-02-22T11:51:17;3.55;;;3.20;;
10565;SDS011;5331;48.148;16.326;2023-02-22T11:57:27;3.78;;;2.85;;
10565;SDS011;5331;48.148;16.326;2023-02-22T12:00:04;3.67;;;3.00;;
10565;SDS011;5331;48.148;16.326;2023-02-22T12:05:49;3.47;;;2.97;;
10565;SDS011;5331;48.148;16.326;2023-02-22T12:08:28;4.07;;;2.75;;
10565;SDS011;5331;48.148;16.326;2023-02-22T12:11:04;3.03;;;2.80;;
10565;SDS011;5331;48.148;16.326;2023-02-22T12:13:48;3.33;;;3.13;;
10565;SDS011;5331;48.148;16.326;2023-02-22T12:16:28;4.45;;;3.53;;
10565;SDS011;5331;48.148;16.326;2023-02-22T12:19:10;3.65;;;3.35;;
10565;SDS011;5331;48.148;16.326;2023-02-22T12:21:45;3.70;;;3.40;;
10565;SDS011;5331;48.148;16.326;2023-02-22T12:24:20;3.58;;;3.28;;
10565;SDS011;5331;48.148;16.326;2023-02-22T12:26:50;4.82;;;3.70;;
10565;SDS011;5331;48.148;16.326;2023-02-22T12:29:24;3.75;;;3.45;;
10565;SDS011;5331;48.148;16.326;2023-02-22T12:31:55;3.65;;;3.35;;
10565;SDS011;5331;48.148;16.326;2023-02-22T12:34:28;3.60;;;3.30;;
10565;SDS011;5331;48.148;16.326;2023-02-22T12:37:00;4.57;;;3.85;;
10565;SDS011;5331;48.148;16.326;2023-02-22T12:39:43;5.95;;;4.43;;
10565;SDS011;5331;48.148;16.326;2023-02-22T12:42:21;3.70;;;3.40;;
10565;SDS011;5331;48.148;16.326;2023-02-22T12:44:54;3.72;;;3.38;;
10565;SDS011;5331;48.148;16.326;2023-02-22T12:47:28;3.70;;;3.40;;
10565;SDS011;5331;48.148;16.326;2023-02-22T12:50:02;4.07;;;3.30;;
10565;SDS011;5331;48.148;16.326;2023-02-22T12:52:40;3.90;;;3.58;;
10565;SDS011;5331;48.148;16.326;2023-02-22T12:55:14;3.97;;;3.30;;
10565;SDS011;5331;48.148;16.326;2023-02-22T12:57:46;3.47;;;3.17;;
10565;SDS011;5331;48.148;16.326;2023-02-22T13:00:19;3.53;;;3.22;;
10565;SDS011;5331;48.148;16.326;2023-02-22T13:02:53;4.25;;;3.40;;
10565;SDS011;5331;48.148;16.326;2023-02-22T13:05:33;3.60;;;3.30;;
10565;SDS011;5331;48.148;16.326;2023-02-22T13:08:14;3.83;;;3.53;;
10565;SDS011;5331;48.148;16.326;2023-02-22T13:11:02;3.70;;;3.00;;
10565;SDS011;5331;48.148;16.326;2023-02-22T13:13:41;3.70;;;3.40;;
10565;SDS011;5331;48.148;16.326;2023-02-22T13:16:21;4.45;;;3.47;;
10565;SDS011;5331;48.148;16.326;2023-02-22T13:18:58;3.60;;;3.30;;
10565;SDS011;5331;48.148;16.326;2023-02-22T13:21:35;5.22;;;3.47;;
10565;SDS011;5331;48.148;16.326;2023-02-22T13:24:15;4.35;;;3.80;;
10565;SDS011;5331;48.148;16.326;2023-02-22T13:26:51;5.25;;;3.50;;
10565;SDS011;5331;48.148;16.326;2023-02-22T13:29:23;4.65;;;3.60;;
10565;SDS011;5331;48.148;16.326;2023-02-22T13:32:06;4.93;;;3.15;;
10565;SDS011;5331;48.148;16.326;2023-02-22T13:34:57;3.90;;;3.42;;
10565;SDS011;5331;48.148;16.326;2023-02-22T13:40:43;4.35;;;3.55;;
10565;SDS011;5331;48.148;16.326;2023-02-22T13:43:36;3.80;;;3.50;;
10565;SDS011;5331;48.148;16.326;2023-02-22T13:49:58;3.15;;;2.85;;
10565;SDS011;5331;48.148;16.326;2023-02-22T13:52:42;3.63;;;3.33;;
10565;SDS011;5331;48.148;16.326;2023-02-22T13:55:14;4.38;;;3.58;;
10565;SDS011;5331;48.148;16.326;2023-02-22T13:57:45;3.67;;;3.38;;
10565;SDS011;5331;48.148;16.326;2023-02-22T14:00:37;3.40;;;3.13;;
10565;SDS011;5331;48.148;16.326;2023-02-22T14:03:17;3.95;;;3.55;;
10565;SDS011;5331;48.148;16.326;2023-02-22T14:06:00;4.10;;;3.70;;
10565;SDS011;5331;48.148;16.326;2023-02-22T14:08:46;3.40;;;3.10;;
10565;SDS011;5331;48.148;16.326;2023-02-22T14:14:19;4.38;;;3.90;;
10565;SDS011;5331;48.148;16.326;2023-02-22T14:20:17;4.38;;;3.97;;
10565;SDS011;5331;48.148;16.326;2023-02-22T14:22:54;5.82;;;3.83;;
10565;SDS011;5331;48.148;16.326;2023-02-22T14:25:32;4.00;;;3.53;;
10565;SDS011;5331;48.148;16.326;2023-02-22T14:28:05;5.10;;;3.60;;
10565;SDS011;5331;48.148;16.326;2023-02-22T14:30:39;4.32;;;3.58;;
10565;SDS011;5331;48.148;16.326;2023-02-22T14:36:07;4.28;;;3.88;;
10565;SDS011;5331;48.148;16.326;2023-02-22T14:38:34;4.97;;;4.43;;
10565;SDS011;5331;48.148;16.326;2023-02-22T14:41:03;4.97;;;3.95;;
10565;SDS011;5331;48.148;16.326;2023-02-22T14:43:35;6.22;;;4.57;;
10565;SDS011;5331;48.148;16.326;2023-02-22T14:46:03;4.97;;;4.53;;
10565;SDS011;5331;48.148;16.326;2023-02-22T14:48:35;6.20;;;4.82;;
10565;SDS011;5331;48.148;16.326;2023-02-22T14:51:12;6.32;;;4.90;;
10565;SDS011;5331;48.148;16.326;2023-02-22T14:53:43;5.65;;;4.38;;
10565;SDS011;5331;48.148;16.326;2023-02-22T14:56:13;4.75;;;4.28;;
10565;SDS011;5331;48.148;16.326;2023-02-22T14:58:48;4.65;;;4.10;;
10565;SDS011;5331;48.148;16.326;2023-02-22T15:01:23;5.07;;;4.32;;
10565;SDS011;5331;48.148;16.326;2023-02-22T15:03:54;4.70;;;4.07;;
10565;SDS011;5331;48.148;16.326;2023-02-22T15:06:25;4.88;;;4.07;;
10565;SDS011;5331;48.148;16.326;2023-02-22T15:09:06;4.28;;;3.78;;
10565;SDS011;5331;48.148;16.326;2023-02-22T15:11:36;4.82;;;3.92;;
10565;SDS011;5331;48.148;16.326;2023-02-22T15:14:12;4.78;;;4.28;;
10565;SDS011;5331;48.148;16.326;2023-02-22T15:16:44;5.05;;;4.30;;
10565;SDS011;5331;48.148;16.326;2023-02-22T15:19:15;5.35;;;4.03;;
10565;SDS011;5331;48.148;16.326;2023-02-22T15:21:57;4.05;;;3.75;;
10565;SDS011;5331;48.148;16.326;2023-02-22T15:24:27;4.90;;;3.97;;
10565;SDS011;5331;48.148;16.326;2023-02-22T15:27:01;4.32;;;3.75;;
10565;SDS011;5331;48.148;16.326;2023-02-22T15:29:31;4.13;;;3.75;;
10565;SDS011;5331;48.148;16.326;2023-02-22T15:32:16;4.35;;;3.92;;
10565;SDS011;5331;48.148;16.326;2023-02-22T15:34:44;4.15;;;3.75;;
10565;SDS011;5331;48.148;16.326;2023-02-22T15:37:18;4.20;;;3.80;;
10565;SDS011;5331;48.148;16.326;2023-02-22T15:39:49;4.10;;;3.67;;
10565;SDS011;5331;48.148;16.326;2023-02-22T15:42:23;4.78;;;4.03;;
10565;SDS011;5331;48.148;16.326;2023-02-22T15:44:51;4.80;;;4.00;;
10565;SDS011;5331;48.148;16.326;2023-02-22T15:47:20;4.30;;;3.90;;
10565;SDS011;5331;48.148;16.326;2023-02-22T15:52:47;4.28;;;3.88;;
10565;SDS011;5331;48.148;16.326;2023-02-22T15:55:17;5.00;;;3.75;;
10565;SDS011;5331;48.148;16.326;2023-02-22T15:57:48;3.83;;;3.30;;
10565;SDS011;5331;48.148;16.326;2023-02-22T16:00:20;3.40;;;3.10;;
10565;SDS011;5331;48.148;16.326;2023-02-22T16:02:49;4.50;;;3.45;;
10565;SDS011;5331;48.148;16.326;2023-02-22T16:05:17;3.60;;;3.30;;
10565;SDS011;5331;48.148;16.326;2023-02-22T16:07:45;3.35;;;3.05;;
10565;SDS011;5331;48.148;16.326;2023-02-22T16:10:22;3.75;;;3.40;;
10565;SDS011;5331;48.148;16.326;2023-02-22T16:13:05;3.05;;;2.85;;
10565;SDS011;5331;48.148;16.326;2023-02-22T16:15:34;3.35;;;3.05;;
10565;SDS011;5331;48.148;16.326;2023-02-22T16:21:00;4.55;;;3.75;;